sensor_id;sensor_type;location;lat;lon;timestamp;temperature;humidity
55777;DHT22;54079;44.540;18.784;2023-11-19T00:00:25;2.40;94.00
55777;DHT22;54079;44.540;18.784;2023-11-19T00:02:52;2.50;94.70
55777;DHT22;54079;44.540;18.784;2023-11-19T00:05:18;2.40;93.80
55777;DHT22;54079;44.540;18.784;2023-11-19T00:07:44;1.90;94.70
55777;DHT22;54079;44.540;18.784;2023-11-19T00:10:10;2.10;96.00
55777;DHT22;54079;44.540;18.784;2023-11-19T00:12:42;2.10;95.40
55777;DHT22;54079;44.540;18.784;2023-11-19T00:15:08;2.30;95.50
55777;DHT22;54079;44.540;18.784;2023-11-19T00:17:38;2.30;95.50
55777;DHT22;54079;44.540;18.784;2023-11-19T00:20:06;2.30;95.40
55777;DHT22;54079;44.540;18.784;2023-11-19T00:22:33;2.20;95.50
55777;DHT22;54079;44.540;18.784;2023-11-19T00:24:59;2.20;94.90
55777;DHT22;54079;44.540;18.784;2023-11-19T00:27:26;1.70;95.60
55777;DHT22;54079;44.540;18.784;2023-11-19T00:29:51;1.70;96.70
55777;DHT22;54079;44.540;18.784;2023-11-19T00:32:17;1.80;95.80
55777;DHT22;54079;44.540;18.784;2023-11-19T00:34:46;2.00;95.90
55777;DHT22;54079;44.540;18.784;2023-11-19T00:37:14;2.00;95.40
55777;DHT22;54079;44.540;18.784;2023-11-19T00:39:41;2.00;95.80
55777;DHT22;54079;44.540;18.784;2023-11-19T00:42:07;1.90;95.80
55777;DHT22;54079;44.540;18.784;2023-11-19T00:44:33;2.00;96.40
55777;DHT22;54079;44.540;18.784;2023-11-19T00:46:59;2.10;97.00
55777;DHT22;54079;44.540;18.784;2023-11-19T00:49:26;2.20;96.80
55777;DHT22;54079;44.540;18.784;2023-11-19T00:51:51;2.20;96.30
55777;DHT22;54079;44.540;18.784;2023-11-19T00:54:17;2.10;95.50
55777;DHT22;54079;44.540;18.784;2023-11-19T00:56:43;2.00;96.50
55777;DHT22;54079;44.540;18.784;2023-11-19T00:59:10;2.00;95.90
55777;DHT22;54079;44.540;18.784;2023-11-19T01:01:36;1.90;95.20
55777;DHT22;54079;44.540;18.784;2023-11-19T01:04:02;1.90;96.50
55777;DHT22;54079;44.540;18.784;2023-11-19T01:06:31;2.00;95.80
55777;DHT22;54079;44.540;18.784;2023-11-19T01:08:57;2.00;96.30
55777;DHT22;54079;44.540;18.784;2023-11-19T01:11:24;2.00;97.20
55777;DHT22;54079;44.540;18.784;2023-11-19T01:13:51;2.10;97.10
55777;DHT22;54079;44.540;18.784;2023-11-19T01:16:18;2.00;96.60
55777;DHT22;54079;44.540;18.784;2023-11-19T01:18:46;2.00;97.00
55777;DHT22;54079;44.540;18.784;2023-11-19T01:21:12;2.10;97.20
55777;DHT22;54079;44.540;18.784;2023-11-19T01:23:40;2.10;97.00
55777;DHT22;54079;44.540;18.784;2023-11-19T01:26:09;2.10;97.00
55777;DHT22;54079;44.540;18.784;2023-11-19T01:28:39;2.10;96.80
55777;DHT22;54079;44.540;18.784;2023-11-19T01:31:06;1.80;96.20
55777;DHT22;54079;44.540;18.784;2023-11-19T01:33:37;1.70;97.10
55777;DHT22;54079;44.540;18.784;2023-11-19T01:36:04;1.60;97.60
55777;DHT22;54079;44.540;18.784;2023-11-19T01:38:30;1.60;96.40
55777;DHT22;54079;44.540;18.784;2023-11-19T01:40:58;1.60;96.80
55777;DHT22;54079;44.540;18.784;2023-11-19T01:43:32;1.80;97.70
55777;DHT22;54079;44.540;18.784;2023-11-19T01:45:58;1.70;97.40
55777;DHT22;54079;44.540;18.784;2023-11-19T01:48:25;1.80;98.00
55777;DHT22;54079;44.540;18.784;2023-11-19T01:50:52;1.90;97.40
55777;DHT22;54079;44.540;18.784;2023-11-19T01:53:19;1.70;96.70
55777;DHT22;54079;44.540;18.784;2023-11-19T01:55:46;1.60;96.30
55777;DHT22;54079;44.540;18.784;2023-11-19T01:58:13;1.70;97.90
55777;DHT22;54079;44.540;18.784;2023-11-19T02:00:39;1.80;97.80
55777;DHT22;54079;44.540;18.784;2023-11-19T02:03:08;1.70;97.50
55777;DHT22;54079;44.540;18.784;2023-11-19T02:05:35;1.70;97.70
55777;DHT22;54079;44.540;18.784;2023-11-19T02:08:01;1.60;97.10
55777;DHT22;54079;44.540;18.784;2023-11-19T02:10:27;1.50;98.10
55777;DHT22;54079;44.540;18.784;2023-11-19T02:12:53;1.50;97.30
55777;DHT22;54079;44.540;18.784;2023-11-19T02:15:21;1.50;97.90
55777;DHT22;54079;44.540;18.784;2023-11-19T02:17:50;1.40;98.30
55777;DHT22;54079;44.540;18.784;2023-11-19T02:20:17;1.50;98.10
55777;DHT22;54079;44.540;18.784;2023-11-19T02:22:46;1.50;98.30
55777;DHT22;54079;44.540;18.784;2023-11-19T02:25:32;1.60;98.00
55777;DHT22;54079;44.540;18.784;2023-11-19T02:28:00;1.70;98.30
55777;DHT22;54079;44.540;18.784;2023-11-19T02:30:26;1.80;97.90
55777;DHT22;54079;44.540;18.784;2023-11-19T02:32:56;1.70;97.20
55777;DHT22;54079;44.540;18.784;2023-11-19T02:35:23;1.40;97.50
55777;DHT22;54079;44.540;18.784;2023-11-19T02:37:49;1.30;98.80
55777;DHT22;54079;44.540;18.784;2023-11-19T02:40:15;1.50;98.40
55777;DHT22;54079;44.540;18.784;2023-11-19T02:42:43;1.60;98.40
55777;DHT22;54079;44.540;18.784;2023-11-19T02:45:09;1.60;97.70
55777;DHT22;54079;44.540;18.784;2023-11-19T02:47:40;1.70;98.20
55777;DHT22;54079;44.540;18.784;2023-11-19T02:50:09;1.70;97.80
55777;DHT22;54079;44.540;18.784;2023-11-19T02:52:44;1.70;97.40
55777;DHT22;54079;44.540;18.784;2023-11-19T02:55:12;1.40;97.80
55777;DHT22;54079;44.540;18.784;2023-11-19T02:57:41;1.40;98.60
55777;DHT22;54079;44.540;18.784;2023-11-19T03:00:18;1.50;98.00
55777;DHT22;54079;44.540;18.784;2023-11-19T03:02:44;1.50;98.30
55777;DHT22;54079;44.540;18.784;2023-11-19T03:05:20;1.60;98.30
55777;DHT22;54079;44.540;18.784;2023-11-19T03:07:46;1.60;97.70
55777;DHT22;54079;44.540;18.784;2023-11-19T03:10:12;1.50;97.40
55777;DHT22;54079;44.540;18.784;2023-11-19T03:12:42;1.40;96.40
55777;DHT22;54079;44.540;18.784;2023-11-19T03:15:08;1.10;98.00
55777;DHT22;54079;44.540;18.784;2023-11-19T03:17:41;1.10;98.90
55777;DHT22;54079;44.540;18.784;2023-11-19T03:20:09;1.20;99.20
55777;DHT22;54079;44.540;18.784;2023-11-19T03:22:39;1.30;99.80
55777;DHT22;54079;44.540;18.784;2023-11-19T03:25:07;1.50;99.00
55777;DHT22;54079;44.540;18.784;2023-11-19T03:27:37;1.50;99.10
55777;DHT22;54079;44.540;18.784;2023-11-19T03:30:09;1.40;98.10
55777;DHT22;54079;44.540;18.784;2023-11-19T03:32:36;1.50;98.20
55777;DHT22;54079;44.540;18.784;2023-11-19T03:35:02;1.50;98.80
55777;DHT22;54079;44.540;18.784;2023-11-19T03:37:30;1.60;99.10
55777;DHT22;54079;44.540;18.784;2023-11-19T03:39:57;1.70;99.20
55777;DHT22;54079;44.540;18.784;2023-11-19T03:42:28;1.70;99.10
55777;DHT22;54079;44.540;18.784;2023-11-19T03:44:56;1.70;99.10
55777;DHT22;54079;44.540;18.784;2023-11-19T03:47:22;1.80;99.00
55777;DHT22;54079;44.540;18.784;2023-11-19T03:49:49;1.90;98.80
55777;DHT22;54079;44.540;18.784;2023-11-19T03:52:16;1.60;98.50
55777;DHT22;54079;44.540;18.784;2023-11-19T03:54:42;1.60;97.50
55777;DHT22;54079;44.540;18.784;2023-11-19T03:57:08;1.40;99.40
55777;DHT22;54079;44.540;18.784;2023-11-19T03:59:36;1.50;98.20
55777;DHT22;54079;44.540;18.784;2023-11-19T04:02:02;1.50;99.20
55777;DHT22;54079;44.540;18.784;2023-11-19T04:04:28;1.40;98.50
55777;DHT22;54079;44.540;18.784;2023-11-19T04:06:57;1.50;97.90
55777;DHT22;54079;44.540;18.784;2023-11-19T04:09:23;1.20;98.00
55777;DHT22;54079;44.540;18.784;2023-11-19T04:11:50;1.10;99.10
55777;DHT22;54079;44.540;18.784;2023-11-19T04:14:16;0.80;99.90
55777;DHT22;54079;44.540;18.784;2023-11-19T04:16:44;1.00;99.90
55777;DHT22;54079;44.540;18.784;2023-11-19T04:19:11;1.00;99.50
55777;DHT22;54079;44.540;18.784;2023-11-19T04:21:37;1.00;99.50
55777;DHT22;54079;44.540;18.784;2023-11-19T04:24:05;1.00;98.80
55777;DHT22;54079;44.540;18.784;2023-11-19T04:26:31;1.10;99.70
55777;DHT22;54079;44.540;18.784;2023-11-19T04:28:57;1.30;99.30
55777;DHT22;54079;44.540;18.784;2023-11-19T04:31:31;1.20;98.60
55777;DHT22;54079;44.540;18.784;2023-11-19T04:33:57;1.30;99.20
55777;DHT22;54079;44.540;18.784;2023-11-19T04:36:24;1.40;99.90
55777;DHT22;54079;44.540;18.784;2023-11-19T04:38:50;1.40;99.60
55777;DHT22;54079;44.540;18.784;2023-11-19T04:41:16;1.30;99.60
55777;DHT22;54079;44.540;18.784;2023-11-19T04:43:42;1.40;99.80
55777;DHT22;54079;44.540;18.784;2023-11-19T04:46:10;1.50;99.60
55777;DHT22;54079;44.540;18.784;2023-11-19T04:48:35;1.40;99.90
55777;DHT22;54079;44.540;18.784;2023-11-19T04:51:04;1.50;99.90
55777;DHT22;54079;44.540;18.784;2023-11-19T04:53:30;1.40;99.00
55777;DHT22;54079;44.540;18.784;2023-11-19T04:55:56;1.10;98.30
55777;DHT22;54079;44.540;18.784;2023-11-19T04:58:22;1.00;99.40
55777;DHT22;54079;44.540;18.784;2023-11-19T05:00:48;0.90;99.90
55777;DHT22;54079;44.540;18.784;2023-11-19T05:03:14;1.10;99.80
55777;DHT22;54079;44.540;18.784;2023-11-19T05:05:40;1.10;99.90
55777;DHT22;54079;44.540;18.784;2023-11-19T05:08:06;1.20;99.80
55777;DHT22;54079;44.540;18.784;2023-11-19T05:10:32;1.30;99.40
55777;DHT22;54079;44.540;18.784;2023-11-19T05:12:58;1.30;99.70
55777;DHT22;54079;44.540;18.784;2023-11-19T05:15:24;1.30;98.10
55777;DHT22;54079;44.540;18.784;2023-11-19T05:17:51;1.20;98.50
55777;DHT22;54079;44.540;18.784;2023-11-19T05:20:17;1.30;99.30
55777;DHT22;54079;44.540;18.784;2023-11-19T05:22:43;1.20;99.90
55777;DHT22;54079;44.540;18.784;2023-11-19T05:25:09;1.40;99.90
55777;DHT22;54079;44.540;18.784;2023-11-19T05:27:36;1.50;99.90
55777;DHT22;54079;44.540;18.784;2023-11-19T05:30:04;1.50;99.70
55777;DHT22;54079;44.540;18.784;2023-11-19T05:32:33;1.70;99.70
55777;DHT22;54079;44.540;18.784;2023-11-19T05:34:59;1.70;99.60
55777;DHT22;54079;44.540;18.784;2023-11-19T05:37:25;1.80;99.80
55777;DHT22;54079;44.540;18.784;2023-11-19T05:39:51;1.90;99.10
55777;DHT22;54079;44.540;18.784;2023-11-19T05:42:17;1.80;99.10
55777;DHT22;54079;44.540;18.784;2023-11-19T05:44:43;1.80;98.40
55777;DHT22;54079;44.540;18.784;2023-11-19T05:47:09;1.40;99.40
55777;DHT22;54079;44.540;18.784;2023-11-19T05:49:35;1.60;99.90
55777;DHT22;54079;44.540;18.784;2023-11-19T05:52:01;1.70;99.90
55777;DHT22;54079;44.540;18.784;2023-11-19T05:54:29;1.90;99.40
55777;DHT22;54079;44.540;18.784;2023-11-19T05:56:55;1.90;98.40
55777;DHT22;54079;44.540;18.784;2023-11-19T05:59:21;1.80;98.50
55777;DHT22;54079;44.540;18.784;2023-11-19T06:01:48;1.60;98.60
55777;DHT22;54079;44.540;18.784;2023-11-19T06:04:14;1.70;98.70
55777;DHT22;54079;44.540;18.784;2023-11-19T06:06:41;1.80;98.40
55777;DHT22;54079;44.540;18.784;2023-11-19T06:09:07;1.90;99.10
55777;DHT22;54079;44.540;18.784;2023-11-19T06:11:34;2.00;98.20
55777;DHT22;54079;44.540;18.784;2023-11-19T06:14:01;2.30;98.40
55777;DHT22;54079;44.540;18.784;2023-11-19T06:16:28;2.50;98.40
55777;DHT22;54079;44.540;18.784;2023-11-19T06:18:54;2.70;98.40
55777;DHT22;54079;44.540;18.784;2023-11-19T06:21:20;2.70;97.30
55777;DHT22;54079;44.540;18.784;2023-11-19T06:23:46;2.80;97.00
55777;DHT22;54079;44.540;18.784;2023-11-19T06:26:12;3.00;97.20
55777;DHT22;54079;44.540;18.784;2023-11-19T06:28:39;3.30;96.60
55777;DHT22;54079;44.540;18.784;2023-11-19T06:31:05;3.70;96.80
55777;DHT22;54079;44.540;18.784;2023-11-19T06:33:31;3.90;96.00
55777;DHT22;54079;44.540;18.784;2023-11-19T06:35:58;3.60;95.60
55777;DHT22;54079;44.540;18.784;2023-11-19T06:38:25;3.70;96.00
55777;DHT22;54079;44.540;18.784;2023-11-19T06:40:51;3.70;96.20
55777;DHT22;54079;44.540;18.784;2023-11-19T06:43:17;3.60;95.80
55777;DHT22;54079;44.540;18.784;2023-11-19T06:45:43;3.50;96.10
55777;DHT22;54079;44.540;18.784;2023-11-19T06:48:10;3.60;96.50
55777;DHT22;54079;44.540;18.784;2023-11-19T06:50:36;3.50;97.00
55777;DHT22;54079;44.540;18.784;2023-11-19T06:53:02;3.70;96.70
55777;DHT22;54079;44.540;18.784;2023-11-19T06:55:28;3.90;97.10
55777;DHT22;54079;44.540;18.784;2023-11-19T06:57:53;3.90;96.10
55777;DHT22;54079;44.540;18.784;2023-11-19T07:00:19;3.50;96.00
55777;DHT22;54079;44.540;18.784;2023-11-19T07:02:45;3.40;96.00
55777;DHT22;54079;44.540;18.784;2023-11-19T07:05:11;4.00;97.00
55777;DHT22;54079;44.540;18.784;2023-11-19T07:07:38;4.70;96.10
55777;DHT22;54079;44.540;18.784;2023-11-19T07:10:06;5.30;96.10
55777;DHT22;54079;44.540;18.784;2023-11-19T07:12:34;5.70;94.50
55777;DHT22;54079;44.540;18.784;2023-11-19T07:15:02;5.30;94.20
55777;DHT22;54079;44.540;18.784;2023-11-19T07:17:30;5.70;94.60
55777;DHT22;54079;44.540;18.784;2023-11-19T07:19:56;6.20;95.80
55777;DHT22;54079;44.540;18.784;2023-11-19T07:22:25;6.80;95.70
55777;DHT22;54079;44.540;18.784;2023-11-19T07:24:51;6.90;94.30
55777;DHT22;54079;44.540;18.784;2023-11-19T07:27:19;7.10;94.90
55777;DHT22;54079;44.540;18.784;2023-11-19T07:29:45;7.30;94.70
55777;DHT22;54079;44.540;18.784;2023-11-19T07:32:12;7.40;93.90
55777;DHT22;54079;44.540;18.784;2023-11-19T07:34:39;7.60;95.40
55777;DHT22;54079;44.540;18.784;2023-11-19T07:37:05;7.60;93.50
55777;DHT22;54079;44.540;18.784;2023-11-19T07:39:31;7.90;93.20
55777;DHT22;54079;44.540;18.784;2023-11-19T07:41:58;8.10;93.70
55777;DHT22;54079;44.540;18.784;2023-11-19T07:44:24;8.50;94.40
55777;DHT22;54079;44.540;18.784;2023-11-19T07:46:50;8.80;94.60
55777;DHT22;54079;44.540;18.784;2023-11-19T07:49:16;8.70;93.00
55777;DHT22;54079;44.540;18.784;2023-11-19T07:51:42;8.60;91.60
55777;DHT22;54079;44.540;18.784;2023-11-19T07:54:08;8.50;92.90
55777;DHT22;54079;44.540;18.784;2023-11-19T07:56:34;8.80;92.20
55777;DHT22;54079;44.540;18.784;2023-11-19T07:59:04;8.90;92.80
55777;DHT22;54079;44.540;18.784;2023-11-19T08:01:30;9.10;93.20
55777;DHT22;54079;44.540;18.784;2023-11-19T08:03:56;9.10;93.70
55777;DHT22;54079;44.540;18.784;2023-11-19T08:06:23;9.40;93.00
55777;DHT22;54079;44.540;18.784;2023-11-19T08:08:49;9.50;92.60
55777;DHT22;54079;44.540;18.784;2023-11-19T08:11:15;9.70;92.80
55777;DHT22;54079;44.540;18.784;2023-11-19T08:13:40;10.20;92.30
55777;DHT22;54079;44.540;18.784;2023-11-19T08:16:07;11.10;92.00
55777;DHT22;54079;44.540;18.784;2023-11-19T08:18:33;12.90;90.30
55777;DHT22;54079;44.540;18.784;2023-11-19T08:20:59;12.70;88.70
55777;DHT22;54079;44.540;18.784;2023-11-19T08:23:26;12.90;86.00
55777;DHT22;54079;44.540;18.784;2023-11-19T08:25:54;12.60;86.90
55777;DHT22;54079;44.540;18.784;2023-11-19T08:28:20;12.30;85.90
55777;DHT22;54079;44.540;18.784;2023-11-19T08:30:46;12.00;87.00
55777;DHT22;54079;44.540;18.784;2023-11-19T08:33:12;11.90;85.30
55777;DHT22;54079;44.540;18.784;2023-11-19T08:35:38;11.90;84.00
55777;DHT22;54079;44.540;18.784;2023-11-19T08:38:04;12.00;84.30
55777;DHT22;54079;44.540;18.784;2023-11-19T08:40:30;12.20;86.90
55777;DHT22;54079;44.540;18.784;2023-11-19T08:42:56;12.60;85.10
55777;DHT22;54079;44.540;18.784;2023-11-19T08:45:22;12.80;84.40
55777;DHT22;54079;44.540;18.784;2023-11-19T08:47:48;12.80;85.70
55777;DHT22;54079;44.540;18.784;2023-11-19T08:50:14;12.70;81.90
55777;DHT22;54079;44.540;18.784;2023-11-19T08:52:40;12.30;78.00
55777;DHT22;54079;44.540;18.784;2023-11-19T08:55:06;12.30;80.90
55777;DHT22;54079;44.540;18.784;2023-11-19T08:57:33;12.30;80.70
55777;DHT22;54079;44.540;18.784;2023-11-19T08:59:59;12.30;77.50
55777;DHT22;54079;44.540;18.784;2023-11-19T09:02:25;12.50;78.30
55777;DHT22;54079;44.540;18.784;2023-11-19T09:04:51;12.70;77.80
55777;DHT22;54079;44.540;18.784;2023-11-19T09:07:17;12.70;77.50
55777;DHT22;54079;44.540;18.784;2023-11-19T09:09:43;12.80;77.20
55777;DHT22;54079;44.540;18.784;2023-11-19T09:12:09;12.60;75.40
55777;DHT22;54079;44.540;18.784;2023-11-19T09:14:35;12.40;74.70
55777;DHT22;54079;44.540;18.784;2023-11-19T09:17:01;12.70;75.50
55777;DHT22;54079;44.540;18.784;2023-11-19T09:19:27;12.80;75.70
55777;DHT22;54079;44.540;18.784;2023-11-19T09:21:53;13.10;75.00
55777;DHT22;54079;44.540;18.784;2023-11-19T09:24:19;13.30;72.90
55777;DHT22;54079;44.540;18.784;2023-11-19T09:26:45;13.30;73.90
55777;DHT22;54079;44.540;18.784;2023-11-19T09:29:11;13.50;73.90
55777;DHT22;54079;44.540;18.784;2023-11-19T09:31:40;13.20;72.70
55777;DHT22;54079;44.540;18.784;2023-11-19T09:34:06;12.80;71.20
55777;DHT22;54079;44.540;18.784;2023-11-19T09:36:32;12.60;76.10
55777;DHT22;54079;44.540;18.784;2023-11-19T09:38:58;13.10;75.80
55777;DHT22;54079;44.540;18.784;2023-11-19T09:41:26;13.40;73.40
55777;DHT22;54079;44.540;18.784;2023-11-19T09:43:53;13.70;74.00
55777;DHT22;54079;44.540;18.784;2023-11-19T09:46:20;13.80;71.70
55777;DHT22;54079;44.540;18.784;2023-11-19T09:48:46;13.20;69.00
55777;DHT22;54079;44.540;18.784;2023-11-19T09:51:14;13.10;71.30
55777;DHT22;54079;44.540;18.784;2023-11-19T09:53:40;13.10;74.00
55777;DHT22;54079;44.540;18.784;2023-11-19T09:56:07;13.30;71.50
55777;DHT22;54079;44.540;18.784;2023-11-19T09:58:35;13.60;72.00
55777;DHT22;54079;44.540;18.784;2023-11-19T10:01:02;13.80;70.00
55777;DHT22;54079;44.540;18.784;2023-11-19T10:03:36;14.10;71.10
55777;DHT22;54079;44.540;18.784;2023-11-19T10:06:06;14.30;69.90
55777;DHT22;54079;44.540;18.784;2023-11-19T10:08:33;14.70;72.20
55777;DHT22;54079;44.540;18.784;2023-11-19T10:11:00;15.00;71.30
55777;DHT22;54079;44.540;18.784;2023-11-19T10:13:29;15.20;71.40
55777;DHT22;54079;44.540;18.784;2023-11-19T10:15:58;15.50;69.50
55777;DHT22;54079;44.540;18.784;2023-11-19T10:18:26;15.70;67.80
55777;DHT22;54079;44.540;18.784;2023-11-19T10:20:53;16.10;68.70
55777;DHT22;54079;44.540;18.784;2023-11-19T10:23:20;15.90;67.20
55777;DHT22;54079;44.540;18.784;2023-11-19T10:25:46;15.90;67.50
55777;DHT22;54079;44.540;18.784;2023-11-19T10:28:15;16.00;66.80
55777;DHT22;54079;44.540;18.784;2023-11-19T10:30:44;15.70;64.50
55777;DHT22;54079;44.540;18.784;2023-11-19T10:33:11;14.70;65.80
55777;DHT22;54079;44.540;18.784;2023-11-19T10:35:57;14.20;69.00
55777;DHT22;54079;44.540;18.784;2023-11-19T10:38:24;13.80;62.90
55777;DHT22;54079;44.540;18.784;2023-11-19T10:40:51;13.70;67.40
55777;DHT22;54079;44.540;18.784;2023-11-19T10:43:18;13.00;63.50
55777;DHT22;54079;44.540;18.784;2023-11-19T10:45:44;13.10;63.70
55777;DHT22;54079;44.540;18.784;2023-11-19T10:48:10;13.50;67.60
55777;DHT22;54079;44.540;18.784;2023-11-19T10:50:42;14.30;68.90
55777;DHT22;54079;44.540;18.784;2023-11-19T10:53:12;14.50;67.10
55777;DHT22;54079;44.540;18.784;2023-11-19T10:55:47;14.90;66.60
55777;DHT22;54079;44.540;18.784;2023-11-19T10:58:15;14.50;60.80
55777;DHT22;54079;44.540;18.784;2023-11-19T11:00:57;14.60;64.80
55777;DHT22;54079;44.540;18.784;2023-11-19T11:03:31;14.90;60.00
55777;DHT22;54079;44.540;18.784;2023-11-19T11:06:03;14.70;60.40
55777;DHT22;54079;44.540;18.784;2023-11-19T11:08:30;14.60;63.50
55777;DHT22;54079;44.540;18.784;2023-11-19T11:10:57;13.90;58.20
55777;DHT22;54079;44.540;18.784;2023-11-19T11:13:27;13.80;62.80
55777;DHT22;54079;44.540;18.784;2023-11-19T11:15:57;13.80;63.20
55777;DHT22;54079;44.540;18.784;2023-11-19T11:18:26;13.80;65.80
55777;DHT22;54079;44.540;18.784;2023-11-19T11:21:02;13.70;66.20
55777;DHT22;54079;44.540;18.784;2023-11-19T11:23:58;13.60;65.10
55777;DHT22;54079;44.540;18.784;2023-11-19T11:38:06;13.60;66.50
55777;DHT22;54079;44.540;18.784;2023-11-19T11:40:32;13.50;63.90
55777;DHT22;54079;44.540;18.784;2023-11-19T11:42:58;13.40;63.40
55777;DHT22;54079;44.540;18.784;2023-11-19T11:45:40;13.50;67.00
55777;DHT22;54079;44.540;18.784;2023-11-19T11:48:10;13.60;62.20
55777;DHT22;54079;44.540;18.784;2023-11-19T11:50:48;13.20;59.50
55777;DHT22;54079;44.540;18.784;2023-11-19T11:53:18;13.30;64.30
55777;DHT22;54079;44.540;18.784;2023-11-19T11:58:17;13.50;63.00
55777;DHT22;54079;44.540;18.784;2023-11-19T12:00:44;13.50;62.50
55777;DHT22;54079;44.540;18.784;2023-11-19T12:03:11;13.60;63.70
55777;DHT22;54079;44.540;18.784;2023-11-19T12:05:45;13.80;62.10
55777;DHT22;54079;44.540;18.784;2023-11-19T12:08:18;14.00;65.10
55777;DHT22;54079;44.540;18.784;2023-11-19T12:13:13;14.00;61.90
55777;DHT22;54079;44.540;18.784;2023-11-19T12:18:24;14.20;63.70
55777;DHT22;54079;44.540;18.784;2023-11-19T12:20:51;14.30;62.60
55777;DHT22;54079;44.540;18.784;2023-11-19T12:23:17;14.40;63.80
55777;DHT22;54079;44.540;18.784;2023-11-19T12:25:44;14.50;63.90
55777;DHT22;54079;44.540;18.784;2023-11-19T12:28:15;14.30;63.40
55777;DHT22;54079;44.540;18.784;2023-11-19T12:30:45;14.30;59.80
55777;DHT22;54079;44.540;18.784;2023-11-19T12:33:12;14.30;62.30
55777;DHT22;54079;44.540;18.784;2023-11-19T12:35:45;14.30;60.30
55777;DHT22;54079;44.540;18.784;2023-11-19T12:38:24;14.30;59.90
55777;DHT22;54079;44.540;18.784;2023-11-19T12:43:29;14.50;60.50
55777;DHT22;54079;44.540;18.784;2023-11-19T12:45:55;14.90;63.60
55777;DHT22;54079;44.540;18.784;2023-11-19T12:48:21;15.00;62.00
55777;DHT22;54079;44.540;18.784;2023-11-19T12:50:55;15.00;59.70
55777;DHT22;54079;44.540;18.784;2023-11-19T12:53:25;15.20;65.00
55777;DHT22;54079;44.540;18.784;2023-11-19T12:55:53;15.20;60.20
55777;DHT22;54079;44.540;18.784;2023-11-19T13:01:05;15.00;62.80
55777;DHT22;54079;44.540;18.784;2023-11-19T13:03:36;14.90;58.90
55777;DHT22;54079;44.540;18.784;2023-11-19T13:06:07;14.70;58.90
55777;DHT22;54079;44.540;18.784;2023-11-19T13:08:41;14.90;62.20
55777;DHT22;54079;44.540;18.784;2023-11-19T13:11:08;15.20;60.70
55777;DHT22;54079;44.540;18.784;2023-11-19T13:13:57;15.20;60.00
55777;DHT22;54079;44.540;18.784;2023-11-19T13:16:27;15.10;62.40
55777;DHT22;54079;44.540;18.784;2023-11-19T13:18:53;15.30;58.90
55777;DHT22;54079;44.540;18.784;2023-11-19T13:21:19;15.20;59.60
55777;DHT22;54079;44.540;18.784;2023-11-19T13:23:45;15.20;60.50
55777;DHT22;54079;44.540;18.784;2023-11-19T13:26:12;14.90;58.00
55777;DHT22;54079;44.540;18.784;2023-11-19T13:28:38;14.60;59.50
55777;DHT22;54079;44.540;18.784;2023-11-19T13:31:05;14.60;61.00
55777;DHT22;54079;44.540;18.784;2023-11-19T13:33:31;14.60;60.30
55777;DHT22;54079;44.540;18.784;2023-11-19T13:35:57;14.60;63.80
55777;DHT22;54079;44.540;18.784;2023-11-19T13:38:23;14.50;62.10
55777;DHT22;54079;44.540;18.784;2023-11-19T13:40:49;14.50;62.50
55777;DHT22;54079;44.540;18.784;2023-11-19T13:43:16;14.40;61.90
55777;DHT22;54079;44.540;18.784;2023-11-19T13:45:42;14.30;62.00
55777;DHT22;54079;44.540;18.784;2023-11-19T13:48:08;14.30;62.30
55777;DHT22;54079;44.540;18.784;2023-11-19T13:50:35;14.30;61.70
55777;DHT22;54079;44.540;18.784;2023-11-19T13:53:01;14.30;63.20
55777;DHT22;54079;44.540;18.784;2023-11-19T13:55:27;14.30;63.20
55777;DHT22;54079;44.540;18.784;2023-11-19T13:57:53;14.20;60.60
55777;DHT22;54079;44.540;18.784;2023-11-19T14:00:19;14.20;62.70
55777;DHT22;54079;44.540;18.784;2023-11-19T14:02:46;14.30;63.20
55777;DHT22;54079;44.540;18.784;2023-11-19T14:05:16;14.30;63.80
55777;DHT22;54079;44.540;18.784;2023-11-19T14:07:45;14.40;63.10
55777;DHT22;54079;44.540;18.784;2023-11-19T14:10:14;14.30;60.10
55777;DHT22;54079;44.540;18.784;2023-11-19T14:12:41;14.20;60.60
55777;DHT22;54079;44.540;18.784;2023-11-19T14:15:08;14.20;59.90
55777;DHT22;54079;44.540;18.784;2023-11-19T14:17:36;14.30;60.70
55777;DHT22;54079;44.540;18.784;2023-11-19T14:20:05;14.50;65.70
55777;DHT22;54079;44.540;18.784;2023-11-19T14:22:42;14.60;62.30
55777;DHT22;54079;44.540;18.784;2023-11-19T14:25:09;14.50;61.50
55777;DHT22;54079;44.540;18.784;2023-11-19T14:27:39;14.40;62.00
55777;DHT22;54079;44.540;18.784;2023-11-19T14:30:06;14.30;63.10
55777;DHT22;54079;44.540;18.784;2023-11-19T14:32:38;14.00;62.00
55777;DHT22;54079;44.540;18.784;2023-11-19T14:35:05;13.80;65.20
55777;DHT22;54079;44.540;18.784;2023-11-19T14:37:32;13.70;65.20
55777;DHT22;54079;44.540;18.784;2023-11-19T14:39:59;13.60;64.90
55777;DHT22;54079;44.540;18.784;2023-11-19T14:42:25;13.50;66.90
55777;DHT22;54079;44.540;18.784;2023-11-19T14:44:52;13.10;65.20
55777;DHT22;54079;44.540;18.784;2023-11-19T14:47:19;12.90;65.10
55777;DHT22;54079;44.540;18.784;2023-11-19T14:49:45;12.70;64.30
55777;DHT22;54079;44.540;18.784;2023-11-19T14:52:11;12.50;65.20
55777;DHT22;54079;44.540;18.784;2023-11-19T14:54:38;12.40;66.90
55777;DHT22;54079;44.540;18.784;2023-11-19T14:57:05;12.40;63.90
55777;DHT22;54079;44.540;18.784;2023-11-19T14:59:32;12.20;64.90
55777;DHT22;54079;44.540;18.784;2023-11-19T15:01:58;12.10;68.00
55777;DHT22;54079;44.540;18.784;2023-11-19T15:04:26;12.00;67.90
55777;DHT22;54079;44.540;18.784;2023-11-19T15:06:53;11.80;68.50
55777;DHT22;54079;44.540;18.784;2023-11-19T15:09:19;11.70;66.40
55777;DHT22;54079;44.540;18.784;2023-11-19T15:11:47;11.70;69.10
55777;DHT22;54079;44.540;18.784;2023-11-19T15:14:16;11.30;67.90
55777;DHT22;54079;44.540;18.784;2023-11-19T15:16:45;11.00;68.50
55777;DHT22;54079;44.540;18.784;2023-11-19T15:19:11;11.10;71.70
55777;DHT22;54079;44.540;18.784;2023-11-19T15:21:41;11.00;68.10
55777;DHT22;54079;44.540;18.784;2023-11-19T15:24:08;10.60;69.20
55777;DHT22;54079;44.540;18.784;2023-11-19T15:26:35;10.60;70.00
55777;DHT22;54079;44.540;18.784;2023-11-19T15:29:01;10.60;69.40
55777;DHT22;54079;44.540;18.784;2023-11-19T15:31:28;10.60;70.90
55777;DHT22;54079;44.540;18.784;2023-11-19T15:33:55;10.50;70.90
55777;DHT22;54079;44.540;18.784;2023-11-19T15:36:21;10.40;73.30
55777;DHT22;54079;44.540;18.784;2023-11-19T15:38:47;10.40;70.10
55777;DHT22;54079;44.540;18.784;2023-11-19T15:41:13;10.40;69.70
55777;DHT22;54079;44.540;18.784;2023-11-19T15:43:40;10.20;69.70
55777;DHT22;54079;44.540;18.784;2023-11-19T15:46:09;10.20;70.50
55777;DHT22;54079;44.540;18.784;2023-11-19T15:48:36;10.20;72.40
55777;DHT22;54079;44.540;18.784;2023-11-19T15:51:03;10.00;74.20